createdAt,value
2023-02-28T00:00:38.670Z,4.80
2023-02-28T00:03:05.775Z,4.70
2023-02-28T00:05:33.103Z,4.70
2023-02-28T00:08:00.361Z,4.50
2023-02-28T00:10:29.301Z,4.70
2023-02-28T00:12:58.069Z,4.70
2023-02-28T00:15:25.080Z,4.50
2023-02-28T00:17:52.390Z,4.60
2023-02-28T00:20:19.593Z,4.50
2023-02-28T00:22:47.816Z,4.40
2023-02-28T00:25:16.135Z,4.50
2023-02-28T00:27:43.510Z,4.50
2023-02-28T00:30:12.768Z,4.60
2023-02-28T00:32:40.031Z,4.50
2023-02-28T00:35:08.024Z,4.60
2023-02-28T00:37:35.151Z,4.40
2023-02-28T00:40:02.225Z,4.40
2023-02-28T00:42:29.244Z,4.40
2023-02-28T00:44:56.204Z,4.30
2023-02-28T00:47:23.189Z,4.50
2023-02-28T00:49:50.374Z,4.40
2023-02-28T00:52:17.369Z,4.40
2023-02-28T00:54:44.552Z,4.30
2023-02-28T00:57:11.519Z,4.10
2023-02-28T00:59:38.580Z,4.20
2023-02-28T01:02:07.055Z,4.10
2023-02-28T01:04:34.910Z,4.20
2023-02-28T01:07:02.113Z,4.00
2023-02-28T01:09:29.341Z,3.90
2023-02-28T01:11:56.317Z,4.10
2023-02-28T01:14:23.288Z,4.00
2023-02-28T01:16:50.269Z,4.00
2023-02-28T01:19:17.553Z,4.00
2023-02-28T01:21:44.491Z,3.90
2023-02-28T01:24:13.500Z,4.00
2023-02-28T01:26:40.454Z,3.70
2023-02-28T01:29:08.216Z,3.90
2023-02-28T01:31:35.372Z,3.80
2023-02-28T01:34:02.691Z,3.50
2023-02-28T01:36:29.883Z,3.60
2023-02-28T01:38:56.865Z,3.20
2023-02-28T01:41:25.836Z,3.30
2023-02-28T01:44:04.415Z,3.40
2023-02-28T01:46:35.601Z,2.90
2023-02-28T01:49:15.490Z,3.10
2023-02-28T01:51:57.650Z,3.20
2023-02-28T01:54:28.106Z,3.10
2023-02-28T01:57:16.058Z,3.10
2023-02-28T02:00:01.711Z,3.00
2023-02-28T02:02:29.012Z,3.00
2023-02-28T02:05:02.838Z,3.10
2023-02-28T02:07:33.287Z,2.90
2023-02-28T02:10:25.893Z,2.90
2023-02-28T02:13:07.862Z,3.00
2023-02-28T02:16:04.633Z,2.90
2023-02-28T02:19:11.707Z,2.70
2023-02-28T02:22:07.441Z,2.70
2023-02-28T02:24:34.429Z,2.80
2023-02-28T02:27:21.493Z,2.60
2023-02-28T02:30:27.784Z,2.90
2023-02-28T02:33:13.249Z,2.70
2023-02-28T02:35:49.471Z,2.90
2023-02-28T02:38:21.211Z,2.50
2023-02-28T02:41:13.857Z,2.60
2023-02-28T02:43:48.166Z,2.70
2023-02-28T02:46:32.640Z,2.50
2023-02-28T02:49:00.389Z,2.70
2023-02-28T02:51:27.861Z,2.20
2023-02-28T02:54:09.180Z,2.10
2023-02-28T02:56:36.253Z,2.00
2023-02-28T02:59:05.192Z,2.30
2023-02-28T03:01:32.753Z,2.20
2023-02-28T03:04:04.232Z,2.40
2023-02-28T03:06:31.322Z,2.20
2023-02-28T03:08:58.437Z,2.40
2023-02-28T03:11:25.426Z,2.30
2023-02-28T03:14:01.272Z,2.20
2023-02-28T03:16:38.824Z,2.10
2023-02-28T03:19:37.192Z,2.20
2023-02-28T03:22:20.231Z,2.00
2023-02-28T03:24:59.933Z,1.90
2023-02-28T03:27:28.541Z,2.10
2023-02-28T03:30:25.230Z,2.10
2023-02-28T03:32:59.420Z,2.20
2023-02-28T03:35:29.715Z,2.30
2023-02-28T03:38:10.566Z,2.50
2023-02-28T03:40:37.546Z,2.30
2023-02-28T03:43:07.753Z,2.40
2023-02-28T03:45:35.856Z,2.80
2023-02-28T03:48:39.354Z,2.50
2023-02-28T03:51:06.329Z,2.70
2023-02-28T03:53:42.094Z,2.50
2023-02-28T03:56:21.106Z,2.60
2023-02-28T03:59:03.841Z,2.60
2023-02-28T04:01:42.537Z,2.40
2023-02-28T04:04:10.439Z,2.40
2023-02-28T04:06:37.439Z,2.30
2023-02-28T04:09:05.270Z,2.50
2023-02-28T04:11:54.442Z,2.50
2023-02-28T04:14:21.387Z,2.40
2023-02-28T04:16:48.500Z,2.20
2023-02-28T04:19:15.902Z,2.20
2023-02-28T04:21:50.439Z,2.40
2023-02-28T04:24:21.928Z,2.40
2023-02-28T04:26:53.377Z,2.10
2023-02-28T04:29:30.493Z,2.20
2023-02-28T04:32:01.149Z,2.20
2023-02-28T04:34:28.995Z,2.50
2023-02-28T04:37:11.824Z,2.10
2023-02-28T04:39:39.841Z,2.40
2023-02-28T04:42:07.094Z,2.40
2023-02-28T04:44:34.211Z,2.20
2023-02-28T04:47:01.254Z,2.10
2023-02-28T04:49:28.328Z,2.40
2023-02-28T04:51:56.018Z,2.50
2023-02-28T04:54:22.933Z,2.20
2023-02-28T04:56:51.003Z,2.50
2023-02-28T04:59:18.526Z,2.50
2023-02-28T05:01:49.161Z,2.20
2023-02-28T05:04:16.221Z,2.50
2023-02-28T05:06:43.577Z,2.60
2023-02-28T05:09:12.644Z,2.30
2023-02-28T05:11:52.644Z,2.50
2023-02-28T05:14:20.211Z,2.30
2023-02-28T05:16:47.154Z,2.50
2023-02-28T05:19:14.228Z,2.30
2023-02-28T05:21:56.844Z,2.40
2023-02-28T05:24:23.963Z,2.50
2023-02-28T05:26:52.848Z,2.70
2023-02-28T05:29:20.254Z,2.40
2023-02-28T05:31:47.678Z,2.50
2023-02-28T05:34:16.628Z,2.40
2023-02-28T05:36:43.768Z,2.40
2023-02-28T05:39:14.310Z,2.60
2023-02-28T05:41:44.696Z,2.60
2023-02-28T05:44:12.262Z,2.50
2023-02-28T05:46:39.575Z,2.60
2023-02-28T05:49:06.728Z,2.50
2023-02-28T05:51:35.380Z,2.60
2023-02-28T05:54:02.788Z,2.60
2023-02-28T05:56:30.020Z,2.60
2023-02-28T05:58:57.047Z,2.60
2023-02-28T06:01:41.393Z,2.70
2023-02-28T06:04:19.216Z,2.70
2023-02-28T06:06:52.775Z,2.70
2023-02-28T06:09:20.199Z,2.80
2023-02-28T06:11:47.293Z,2.90
2023-02-28T06:14:18.933Z,2.50
2023-02-28T06:16:46.117Z,2.90
2023-02-28T06:19:13.684Z,2.90
2023-02-28T06:21:40.735Z,3.00
2023-02-28T06:24:08.007Z,3.00
2023-02-28T06:26:34.959Z,3.10
2023-02-28T06:29:02.003Z,3.00
2023-02-28T06:31:30.525Z,3.10
2023-02-28T06:33:57.790Z,3.30
2023-02-28T06:36:24.724Z,3.20
2023-02-28T06:38:55.874Z,3.50
2023-02-28T06:41:24.692Z,3.30
2023-02-28T06:43:51.569Z,3.50
2023-02-28T06:46:18.962Z,3.40
2023-02-28T06:48:46.264Z,3.20
2023-02-28T06:51:15.860Z,3.40
2023-02-28T06:53:42.964Z,3.40
2023-02-28T06:56:15.745Z,3.50
2023-02-28T06:58:42.778Z,3.40
2023-02-28T07:01:10.027Z,3.40
2023-02-28T07:03:37.344Z,3.30
2023-02-28T07:06:05.554Z,3.40
2023-02-28T07:08:35.749Z,3.50
2023-02-28T07:11:02.914Z,3.60
2023-02-28T07:13:29.940Z,3.80
2023-02-28T07:16:01.634Z,3.60
2023-02-28T07:18:28.865Z,3.50
2023-02-28T07:20:55.986Z,3.70
2023-02-28T07:23:23.113Z,3.70
2023-02-28T07:25:51.254Z,3.90
2023-02-28T07:28:18.265Z,3.90
2023-02-28T07:30:45.184Z,3.80
2023-02-28T07:33:12.173Z,3.90
2023-02-28T07:35:39.349Z,3.90
2023-02-28T07:38:08.430Z,4.30
2023-02-28T07:40:36.080Z,4.10
2023-02-28T07:43:03.296Z,4.10
2023-02-28T07:45:30.639Z,4.30
2023-02-28T07:47:57.591Z,4.50
2023-02-28T07:50:27.008Z,4.60
2023-02-28T07:52:54.060Z,4.40
2023-02-28T07:55:21.083Z,4.50
2023-02-28T07:57:48.186Z,4.60
2023-02-28T08:00:15.583Z,4.60
2023-02-28T08:02:42.592Z,4.80
2023-02-28T08:05:09.856Z,4.80
2023-02-28T08:07:36.914Z,4.90
2023-02-28T08:10:06.617Z,4.90
2023-02-28T08:12:33.689Z,5.30
2023-02-28T08:15:00.653Z,5.20
2023-02-28T08:17:27.747Z,5.10
2023-02-28T08:19:54.874Z,5.30
2023-02-28T08:22:21.915Z,5.50
2023-02-28T08:24:48.966Z,5.60
2023-02-28T08:27:16.098Z,5.80
2023-02-28T08:29:43.083Z,6.00
2023-02-28T08:32:23.551Z,6.20
2023-02-28T08:34:55.802Z,6.30
2023-02-28T08:37:22.716Z,6.60
2023-02-28T08:39:49.800Z,6.60
2023-02-28T08:42:16.767Z,6.60
2023-02-28T08:44:45.574Z,6.50
2023-02-28T08:47:12.493Z,6.40
2023-02-28T08:49:39.543Z,6.60
2023-02-28T08:52:07.238Z,6.50
2023-02-28T08:54:35.518Z,6.60
2023-02-28T08:57:02.445Z,6.40
2023-02-28T08:59:29.847Z,6.60
2023-02-28T09:01:56.809Z,6.80
2023-02-28T09:04:25.290Z,6.90
2023-02-28T09:06:52.611Z,7.00
2023-02-28T09:09:19.579Z,7.40
2023-02-28T09:11:46.556Z,7.20
2023-02-28T09:14:13.848Z,7.30
2023-02-28T09:16:40.849Z,7.30
2023-02-28T09:19:07.794Z,7.30
2023-02-28T09:21:34.752Z,7.30
2023-02-28T09:24:01.761Z,7.60
2023-02-28T09:26:34.959Z,8.00
2023-02-28T09:29:09.769Z,8.00
2023-02-28T09:31:36.687Z,8.10
2023-02-28T09:34:05.092Z,7.90
2023-02-28T09:36:43.793Z,8.10
2023-02-28T09:39:11.922Z,8.10
2023-02-28T09:41:49.540Z,7.70
2023-02-28T09:44:30.365Z,7.80
2023-02-28T09:47:00.707Z,7.80
2023-02-28T09:49:36.061Z,7.70
2023-02-28T09:52:05.512Z,7.70
2023-02-28T09:54:33.389Z,7.50
2023-02-28T09:57:06.515Z,7.80
2023-02-28T09:59:55.232Z,7.50
2023-02-28T10:02:49.212Z,7.50
2023-02-28T10:05:18.245Z,7.50
2023-02-28T10:08:15.623Z,7.40
2023-02-28T10:10:43.836Z,7.20
2023-02-28T10:13:31.964Z,7.60
2023-02-28T10:16:28.010Z,7.40
2023-02-28T10:19:15.828Z,7.50
2023-02-28T10:21:49.024Z,7.40
2023-02-28T10:24:29.919Z,7.50
2023-02-28T10:27:01.286Z,7.40
2023-02-28T10:29:30.925Z,7.50
2023-02-28T10:31:59.604Z,7.60
2023-02-28T10:34:26.843Z,7.70
2023-02-28T10:36:54.395Z,7.70
2023-02-28T10:39:44.966Z,7.90
2023-02-28T10:42:28.065Z,7.60
2023-02-28T10:45:08.063Z,7.60
2023-02-28T10:47:35.946Z,7.60
2023-02-28T10:50:03.261Z,7.20
2023-02-28T10:52:41.149Z,7.70
2023-02-28T10:55:16.718Z,7.50
2023-02-28T10:57:43.753Z,7.60
2023-02-28T11:00:16.995Z,7.50
2023-02-28T11:02:45.617Z,7.80
2023-02-28T11:05:42.443Z,7.60
2023-02-28T11:08:16.509Z,7.50
2023-02-28T11:11:04.965Z,7.60
2023-02-28T11:13:36.802Z,7.40
2023-02-28T11:16:05.081Z,7.70
2023-02-28T11:18:44.395Z,7.50
2023-02-28T11:21:17.495Z,7.70
2023-02-28T11:23:44.583Z,7.50
2023-02-28T11:26:12.410Z,7.60
2023-02-28T11:28:41.272Z,7.30
2023-02-28T11:31:17.624Z,7.70
2023-02-28T11:33:54.273Z,7.60
2023-02-28T11:36:27.979Z,7.50
2023-02-28T11:38:57.008Z,7.60
2023-02-28T11:41:41.435Z,7.80
2023-02-28T11:44:33.751Z,7.80
2023-02-28T11:47:27.108Z,7.70
2023-02-28T11:50:12.766Z,7.90
2023-02-28T11:52:56.599Z,7.60
2023-02-28T11:55:45.458Z,7.80
2023-02-28T11:58:24.990Z,7.70
2023-02-28T12:01:19.670Z,7.50
2023-02-28T12:04:11.942Z,7.40
2023-02-28T12:06:50.521Z,7.40
2023-02-28T12:09:20.293Z,7.40
2023-02-28T12:12:06.621Z,7.60
2023-02-28T12:15:11.300Z,7.70
2023-02-28T12:18:09.609Z,7.70
2023-02-28T12:21:00.048Z,7.60
2023-02-28T12:23:58.637Z,8.00
2023-02-28T12:26:52.565Z,7.50
2023-02-28T12:29:41.612Z,7.70
2023-02-28T12:32:24.372Z,8.10
2023-02-28T12:35:21.280Z,7.50
2023-02-28T12:38:09.899Z,7.90
2023-02-28T12:41:03.562Z,7.90
2023-02-28T12:43:37.887Z,7.90
2023-02-28T12:46:14.184Z,8.00
2023-02-28T12:48:46.338Z,8.30
2023-02-28T12:51:19.784Z,8.00
2023-02-28T12:54:10.071Z,8.00
2023-02-28T12:56:47.383Z,7.90
2023-02-28T12:59:50.658Z,7.90
2023-02-28T13:02:39.762Z,7.80
2023-02-28T13:05:21.673Z,7.80
2023-02-28T13:07:58.136Z,8.10
2023-02-28T13:10:26.227Z,7.90
2023-02-28T13:12:54.940Z,7.90
2023-02-28T13:15:29.677Z,7.80
2023-02-28T13:17:58.492Z,7.90
2023-02-28T13:20:28.149Z,7.80
2023-02-28T13:22:55.773Z,8.00
2023-02-28T13:25:36.797Z,8.00
2023-02-28T13:28:10.046Z,7.70
2023-02-28T13:31:00.556Z,7.80
2023-02-28T13:33:49.641Z,7.80
2023-02-28T13:36:39.849Z,7.90
2023-02-28T13:39:48.249Z,7.80
2023-02-28T13:42:38.368Z,8.00
2023-02-28T13:45:05.546Z,7.90
2023-02-28T13:47:37.874Z,7.80
2023-02-28T13:50:28.398Z,7.90
2023-02-28T13:53:15.253Z,8.10
2023-02-28T13:56:10.224Z,8.00
2023-02-28T13:58:40.802Z,8.00
2023-02-28T14:01:29.748Z,8.00
2023-02-28T14:04:18.745Z,8.10
2023-02-28T14:06:51.106Z,8.20
2023-02-28T14:09:28.805Z,8.00
2023-02-28T14:11:56.325Z,8.20
2023-02-28T14:14:50.164Z,8.10
2023-02-28T14:17:17.393Z,8.00
2023-02-28T14:19:49.946Z,8.00
2023-02-28T14:22:42.848Z,8.30
2023-02-28T14:25:48.675Z,8.00
2023-02-28T14:28:18.655Z,8.00
2023-02-28T14:31:09.588Z,8.00
2023-02-28T14:33:57.602Z,8.10
2023-02-28T14:36:27.643Z,8.20
2023-02-28T14:38:57.662Z,7.90
2023-02-28T14:41:36.308Z,7.80
2023-02-28T14:44:04.739Z,8.10
2023-02-28T14:46:37.733Z,8.20
2023-02-28T14:49:08.550Z,7.90
2023-02-28T14:51:35.625Z,8.10
2023-02-28T14:54:03.144Z,8.30
2023-02-28T14:56:40.135Z,8.00
2023-02-28T14:59:07.507Z,8.00
2023-02-28T15:01:34.738Z,8.20
2023-02-28T15:04:07.916Z,8.10
2023-02-28T15:06:34.981Z,8.00
2023-02-28T15:09:31.605Z,8.20
2023-02-28T15:11:58.808Z,8.00
2023-02-28T15:14:25.817Z,8.10
2023-02-28T15:16:57.312Z,8.00
2023-02-28T15:19:29.343Z,8.00
2023-02-28T15:21:58.166Z,7.90
2023-02-28T15:24:47.519Z,7.90
2023-02-28T15:27:17.659Z,7.80
2023-02-28T15:29:48.383Z,8.00
2023-02-28T15:32:33.039Z,7.70
2023-02-28T15:35:00.991Z,7.90
2023-02-28T15:37:31.810Z,7.90
2023-02-28T15:40:05.783Z,7.90
2023-02-28T15:42:32.868Z,7.80
2023-02-28T15:45:00.887Z,7.90
2023-02-28T15:47:29.862Z,7.70
2023-02-28T15:49:58.721Z,7.70
2023-02-28T15:52:32.847Z,7.60
2023-02-28T15:55:00.306Z,7.40
2023-02-28T15:57:29.765Z,7.50
2023-02-28T16:00:02.825Z,7.50
2023-02-28T16:02:39.155Z,7.40
2023-02-28T16:05:12.632Z,7.40
2023-02-28T16:07:40.651Z,7.50
2023-02-28T16:10:08.401Z,7.40
2023-02-28T16:12:36.698Z,7.60
2023-02-28T16:15:29.953Z,7.60
2023-02-28T16:17:57.417Z,7.60
2023-02-28T16:20:29.984Z,7.60
2023-02-28T16:23:00.587Z,7.70
2023-02-28T16:25:37.164Z,7.50
2023-02-28T16:28:04.169Z,7.50
2023-02-28T16:30:32.670Z,7.50
2023-02-28T16:33:00.389Z,7.70
2023-02-28T16:35:27.913Z,7.80
2023-02-28T16:37:55.208Z,7.60
2023-02-28T16:40:30.345Z,7.70
2023-02-28T16:43:00.139Z,7.50
2023-02-28T16:45:29.107Z,7.40
2023-02-28T16:47:56.606Z,8.00
2023-02-28T16:50:28.511Z,7.80
2023-02-28T16:52:58.044Z,7.70
2023-02-28T16:55:25.409Z,7.70
2023-02-28T16:57:56.967Z,7.70
2023-02-28T17:00:24.748Z,7.70
2023-02-28T17:02:52.017Z,7.80
2023-02-28T17:05:19.778Z,7.80
2023-02-28T17:07:46.875Z,7.80
2023-02-28T17:10:21.280Z,7.90
2023-02-28T17:12:48.415Z,7.70
2023-02-28T17:15:16.469Z,7.80
2023-02-28T17:17:43.855Z,7.80
2023-02-28T17:20:13.968Z,7.80
2023-02-28T17:22:42.798Z,8.00
2023-02-28T17:25:10.060Z,7.80
2023-02-28T17:27:37.593Z,7.70
2023-02-28T17:30:30.161Z,7.80
2023-02-28T17:32:57.488Z,7.80
2023-02-28T17:35:24.771Z,7.70
2023-02-28T17:37:52.059Z,7.60
2023-02-28T17:40:20.876Z,7.50
2023-02-28T17:42:47.887Z,7.50
2023-02-28T17:45:15.514Z,7.60
2023-02-28T17:47:44.325Z,7.60
2023-02-28T17:50:16.867Z,7.60
2023-02-28T17:52:43.909Z,7.50
2023-02-28T17:55:11.417Z,7.60
2023-02-28T17:57:38.490Z,7.50
2023-02-28T18:00:09.042Z,7.60
2023-02-28T18:02:38.990Z,7.60
2023-02-28T18:05:06.587Z,7.90
2023-02-28T18:07:33.583Z,7.60
2023-02-28T18:10:00.799Z,7.80
2023-02-28T18:12:27.847Z,7.80
2023-02-28T18:14:54.803Z,7.60
2023-02-28T18:17:21.847Z,7.70
2023-02-28T18:19:48.906Z,7.80
2023-02-28T18:22:15.940Z,7.60
2023-02-28T18:24:42.876Z,7.80
2023-02-28T18:27:11.170Z,7.70
2023-02-28T18:29:40.656Z,7.50
2023-02-28T18:32:08.174Z,7.60
2023-02-28T18:34:35.344Z,7.60
2023-02-28T18:37:03.809Z,7.70
2023-02-28T18:39:30.983Z,7.70
2023-02-28T18:41:58.166Z,7.90
2023-02-28T18:44:25.228Z,7.60
2023-02-28T18:46:52.258Z,7.20
2023-02-28T18:49:19.394Z,7.70
2023-02-28T18:51:46.841Z,7.70
2023-02-28T18:54:14.243Z,7.70
2023-02-28T18:56:41.298Z,7.60
2023-02-28T18:59:08.337Z,7.60
2023-02-28T19:01:35.502Z,7.70
2023-02-28T19:04:03.735Z,7.90
2023-02-28T19:06:31.608Z,7.70
2023-02-28T19:08:59.975Z,7.70
2023-02-28T19:11:27.180Z,7.80
2023-02-28T19:13:54.197Z,7.80
2023-02-28T19:16:21.888Z,7.60
2023-02-28T19:18:48.918Z,7.70
2023-02-28T19:21:17.029Z,7.80
2023-02-28T19:23:44.293Z,7.80
2023-02-28T19:26:15.775Z,7.80
2023-02-28T19:28:42.858Z,7.80
2023-02-28T19:31:20.801Z,7.60
2023-02-28T19:33:47.786Z,7.60
2023-02-28T19:36:15.004Z,7.50
2023-02-28T19:38:42.157Z,7.60
2023-02-28T19:41:10.490Z,7.40
2023-02-28T19:43:37.579Z,7.50
2023-02-28T19:46:04.989Z,7.60
2023-02-28T19:48:32.052Z,7.50
2023-02-28T19:50:59.814Z,7.50
2023-02-28T19:53:27.161Z,7.30
2023-02-28T19:55:54.620Z,7.70
2023-02-28T19:58:21.721Z,7.50
2023-02-28T20:00:48.802Z,7.50
2023-02-28T20:03:17.587Z,7.40
2023-02-28T20:05:45.342Z,7.30
2023-02-28T20:08:12.454Z,7.50
2023-02-28T20:10:39.519Z,7.50
2023-02-28T20:13:06.640Z,7.20
2023-02-28T20:15:33.691Z,7.30
2023-02-28T20:18:00.760Z,7.40
2023-02-28T20:20:27.848Z,7.50
2023-02-28T20:22:54.839Z,7.50
2023-02-28T20:25:21.858Z,7.10
2023-02-28T20:27:48.828Z,7.30
2023-02-28T20:30:17.412Z,7.30
2023-02-28T20:32:44.412Z,7.20
2023-02-28T20:35:11.778Z,7.50
2023-02-28T20:37:39.464Z,7.40
2023-02-28T20:40:10.429Z,7.10
2023-02-28T20:42:37.530Z,7.40
2023-02-28T20:45:06.748Z,7.20
2023-02-28T20:47:33.746Z,7.10
2023-02-28T20:50:01.224Z,7.20
2023-02-28T20:52:29.191Z,7.00
2023-02-28T20:54:57.440Z,6.80
2023-02-28T20:57:24.551Z,7.00
2023-02-28T20:59:51.671Z,6.70
2023-02-28T21:02:19.011Z,6.80
2023-02-28T21:04:46.143Z,6.50
2023-02-28T21:07:13.335Z,6.40
2023-02-28T21:09:40.296Z,6.40
2023-02-28T21:12:07.616Z,6.50
2023-02-28T21:14:35.204Z,6.50
2023-02-28T21:17:02.225Z,6.30
2023-02-28T21:19:29.368Z,6.40
2023-02-28T21:21:56.434Z,6.30
2023-02-28T21:24:23.438Z,6.20
2023-02-28T21:26:52.064Z,6.50
2023-02-28T21:29:19.109Z,6.30
2023-02-28T21:31:46.206Z,6.10
2023-02-28T21:34:13.801Z,6.30
2023-02-28T21:36:45.839Z,6.50
2023-02-28T21:39:24.298Z,6.20
2023-02-28T21:41:51.838Z,6.30
2023-02-28T21:44:19.406Z,6.40
2023-02-28T21:46:52.267Z,6.40
2023-02-28T21:49:19.292Z,6.30
2023-02-28T21:51:46.482Z,6.30
2023-02-28T21:54:13.999Z,6.50
2023-02-28T21:56:41.712Z,6.20
2023-02-28T21:59:10.135Z,6.50
2023-02-28T22:01:39.081Z,6.30
2023-02-28T22:04:08.162Z,6.20
2023-02-28T22:06:37.187Z,6.30
2023-02-28T22:09:08.698Z,6.50
2023-02-28T22:11:36.662Z,6.40
2023-02-28T22:14:03.715Z,6.30
2023-02-28T22:16:35.232Z,6.40
2023-02-28T22:19:08.120Z,6.50
2023-02-28T22:21:35.831Z,6.70
2023-02-28T22:24:03.328Z,6.40
2023-02-28T22:26:30.501Z,6.50
2023-02-28T22:28:57.637Z,6.40
2023-02-28T22:31:35.155Z,6.50
2023-02-28T22:34:12.044Z,6.40
2023-02-28T22:36:41.225Z,6.40
2023-02-28T22:39:08.282Z,6.50
2023-02-28T22:41:35.261Z,6.30
2023-02-28T22:44:03.599Z,6.10
2023-02-28T22:46:32.053Z,6.20
2023-02-28T22:49:00.329Z,6.20
2023-02-28T22:51:27.327Z,5.90
2023-02-28T22:53:54.824Z,6.00
2023-02-28T22:56:23.268Z,5.90
2023-02-28T22:58:51.201Z,6.00
2023-02-28T23:01:22.396Z,5.90
2023-02-28T23:03:49.612Z,5.80
2023-02-28T23:06:19.132Z,6.10
2023-02-28T23:08:46.342Z,6.00
2023-02-28T23:11:21.430Z,5.80
2023-02-28T23:13:58.614Z,5.70
2023-02-28T23:16:30.551Z,5.80
2023-02-28T23:18:57.959Z,5.70
2023-02-28T23:21:24.921Z,5.80
2023-02-28T23:23:51.928Z,5.90
2023-02-28T23:26:19.113Z,5.70
2023-02-28T23:28:46.067Z,5.60
2023-02-28T23:31:13.555Z,5.70
2023-02-28T23:33:40.719Z,5.60
2023-02-28T23:36:10.173Z,5.40
2023-02-28T23:38:38.374Z,5.70
2023-02-28T23:41:09.592Z,5.80
2023-02-28T23:43:36.779Z,5.50
2023-02-28T23:46:04.138Z,5.60
2023-02-28T23:48:31.134Z,5.60
2023-02-28T23:51:09.248Z,5.60
2023-02-28T23:53:37.296Z,5.50
2023-02-28T23:56:05.317Z,5.50
2023-02-28T23:58:32.401Z,5.30
